Time;durP1;ratioP1;P1;durP2;ratioP2;P2;SDS_P1;SDS_P2;PMS_P1;PMS_P2;Temp;Humidity;BMP_temperature;BMP_pressure;BME280_temperature;BME280_humidity;BME280_pressure;Samples;Min_cycle;Max_cycle;Signal;HPM_P1;HPM_P2
2022/02/10 00:08:16;;;;;;;3.35;2.28;;;20.70;41.90;;;;;;5043389;28;20045;-59
2022/02/10 00:16:32;;;;;;;2.25;1.63;;;20.70;41.90;;;;;;5049764;28;20047;-57
2022/02/10 00:19:16;;;;;;;2.65;2.33;;;20.70;41.90;;;;;;5044396;28;20378;-59
2022/02/10 00:21:54;;;;;;;4.78;1.77;;;20.60;41.90;;;;;;5060118;28;20032;-59
2022/02/10 00:25:08;;;;;;;2.92;1.75;;;20.70;41.90;;;;;;5041583;28;20425;-59
2022/02/10 00:35:51;;;;;;;1.73;1.45;;;20.60;41.80;;;;;;5062421;28;20036;-58
2022/02/10 00:38:22;;;;;;;1.88;1.65;;;20.60;41.80;;;;;;5052920;28;20046;-57
2022/02/10 00:40:50;;;;;;;3.90;1.20;;;20.60;41.80;;;;;;5051154;28;20635;-58
2022/02/10 00:43:17;;;;;;;3.28;1.83;;;20.60;41.80;;;;;;5050228;28;20033;-57
2022/02/10 00:45:47;;;;;;;2.92;1.63;;;20.70;41.80;;;;;;5061789;28;20048;-59
2022/02/10 00:48:15;;;;;;;1.70;1.58;;;20.70;41.80;;;;;;5047210;28;20048;-58
2022/02/10 00:50:44;;;;;;;3.17;2.20;;;20.70;41.80;;;;;;5053880;28;20923;-59
2022/02/10 00:53:16;;;;;;;2.38;2.17;;;20.70;41.80;;;;;;5058034;28;20053;-58
2022/02/10 00:55:45;;;;;;;1.70;1.60;;;20.70;41.80;;;;;;5055009;28;20063;-56
2022/02/10 00:58:21;;;;;;;2.85;1.58;;;20.60;41.70;;;;;;5045560;28;20098;-58
2022/02/10 01:31:10;;;;;;;1.45;1.10;;;20.60;41.90;;;;;;5044405;28;20116;-57
2022/02/10 01:33:39;;;;;;;3.17;1.83;;;20.60;41.90;;;;;;5046359;28;20128;-58
2022/02/10 01:36:07;;;;;;;2.28;2.08;;;20.60;41.90;;;;;;5046988;28;20049;-57
2022/02/10 01:38:34;;;;;;;1.88;1.42;;;20.60;41.90;;;;;;5053234;28;20432;-57
2022/02/10 01:58:06;;;;;;;2.10;1.50;;;20.50;41.90;;;;;;4983067;28;20510;-57
2022/02/10 02:03:25;;;;;;;1.83;1.40;;;20.50;41.90;;;;;;4983601;28;20537;-58
2022/02/10 02:05:59;;;;;;;1.23;1.13;;;20.50;41.90;;;;;;4984998;28;20590;-56
2022/02/10 02:08:32;;;;;;;2.72;1.45;;;20.50;42.00;;;;;;4986335;28;20152;-59
2022/02/10 02:11:02;;;;;;;1.67;0.98;;;20.50;42.00;;;;;;4986548;28;20554;-58
2022/02/10 02:13:29;;;;;;;2.28;1.42;;;20.50;42.00;;;;;;4988605;28;20074;-59
2022/02/10 02:15:57;;;;;;;3.08;1.80;;;20.50;42.00;;;;;;4985078;28;20054;-55
2022/02/10 02:18:26;;;;;;;2.20;1.30;;;20.50;42.00;;;;;;4999377;28;20142;-57
2022/02/10 02:20:56;;;;;;;1.35;0.90;;;20.50;42.60;;;;;;5023305;28;20048;-59
2022/02/10 02:23:26;;;;;;;1.13;0.90;;;20.50;42.00;;;;;;5051426;28;20064;-58
2022/02/10 02:25:58;;;;;;;2.90;1.50;;;20.50;42.00;;;;;;5052944;28;20064;-58
2022/02/10 02:28:25;;;;;;;1.48;1.10;;;20.50;42.00;;;;;;5053407;28;20056;-58
2022/02/10 02:30:57;;;;;;;1.90;1.80;;;20.50;42.00;;;;;;5044789;28;20052;-59
2022/02/10 03:04:45;;;;;;;1.15;0.82;;;20.40;42.10;;;;;;4951854;28;20204;-58
2022/02/10 03:07:17;;;;;;;1.45;0.88;;;20.40;42.10;;;;;;4949113;28;20140;-59
2022/02/10 03:09:55;;;;;;;0.55;0.45;;;20.40;42.20;;;;;;4946833;28;20574;-59
2022/02/10 03:12:23;;;;;;;0.80;0.55;;;20.40;42.20;;;;;;4945672;28;20047;-60
2022/02/10 03:14:57;;;;;;;2.25;1.05;;;20.40;42.20;;;;;;4950242;28;20059;-59
2022/02/10 03:17:42;;;;;;;2.08;0.75;;;20.40;42.10;;;;;;4949222;28;20059;-56
2022/02/10 03:20:22;;;;;;;0.63;0.63;;;20.40;42.10;;;;;;4950255;28;20050;-58
2022/02/10 04:00:06;;;;;;;3.08;0.73;;;20.40;42.20;;;;;;5009397;28;20051;-59
2022/02/10 04:02:05;;;;;;;1.63;0.75;;;20.20;42.30;;;;;;5058014;28;20051;-57
2022/02/10 04:04:53;;;;;;;1.05;0.60;;;20.30;42.30;;;;;;5058445;28;20036;-59
2022/02/10 04:07:34;;;;;;;1.58;0.70;;;20.20;42.20;;;;;;5054581;28;20051;-58
2022/02/10 04:15:36;;;;;;;0.98;0.50;;;20.20;42.30;;;;;;5051447;28;20068;-59
2022/02/10 04:18:39;;;;;;;0.60;0.60;;;20.20;42.30;;;;;;5051207;28;20049;-54
2022/02/10 04:21:21;;;;;;;0.50;0.50;;;20.20;42.20;;;;;;5053475;28;20094;-55
2022/02/10 04:24:03;;;;;;;0.90;0.85;;;20.20;42.30;;;;;;5056081;28;20475;-59
2022/02/10 04:26:38;;;;;;;0.82;0.82;;;20.20;42.20;;;;;;5054022;28;20049;-58
2022/02/10 04:29:35;;;;;;;0.65;0.60;;;20.20;42.30;;;;;;5055522;28;20048;-59
2022/02/10 04:32:30;;;;;;;1.27;0.77;;;20.20;42.30;;;;;;5050939;28;20126;-59
2022/02/10 04:38:22;;;;;;;1.30;1.27;;;20.20;42.30;;;;;;5056494;28;20082;-58
2022/02/10 04:55:15;;;;;;;1.27;0.35;;;20.10;42.30;;;;;;5050259;28;20031;-58
2022/02/10 04:58:05;;;;;;;1.33;0.70;;;20.10;42.30;;;;;;5054628;28;20530;-58
2022/02/10 05:00:44;;;;;;;1.27;0.68;;;20.10;42.30;;;;;;5049709;28;20509;-59
2022/02/10 05:04:02;;;;;;;1.15;0.93;;;20.10;42.40;;;;;;5053706;28;20045;-59
2022/02/10 05:13:04;;;;;;;0.50;0.40;;;20.10;42.30;;;;;;5054157;28;20053;-60
2022/02/10 05:18:23;;;;;;;3.00;0.95;;;20.00;42.30;;;;;;5049678;28;20751;-59
2022/02/10 05:21:09;;;;;;;1.02;0.50;;;20.10;42.40;;;;;;5051793;28;20432;-59
2022/02/10 05:24:07;;;;;;;1.98;1.13;;;20.10;42.40;;;;;;5052132;28;20049;-59
2022/02/10 05:34:48;;;;;;;0.88;0.85;;;20.00;42.40;;;;;;5009010;28;20053;-57
2022/02/10 05:37:18;;;;;;;0.95;0.90;;;20.00;42.40;;;;;;5025080;28;20135;-59
2022/02/10 05:39:48;;;;;;;0.93;0.52;;;20.00;42.40;;;;;;5024555;28;20124;-58
2022/02/10 05:42:45;;;;;;;1.58;0.95;;;20.00;42.30;;;;;;5039844;28;20804;-59
2022/02/10 05:45:37;;;;;;;0.70;0.50;;;20.10;42.40;;;;;;5026508;28;20052;-58
2022/02/10 05:48:23;;;;;;;0.45;0.38;;;20.00;42.30;;;;;;5024535;28;20049;-57
2022/02/10 05:53:55;;;;;;;1.90;1.00;;;20.00;42.30;;;;;;4966484;28;20626;-57
2022/02/10 05:56:34;;;;;;;2.35;0.75;;;20.00;42.30;;;;;;4955887;28;20412;-58
2022/02/10 05:59:25;;;;;;;0.80;0.30;;;20.00;42.30;;;;;;4974161;28;20404;-57
2022/02/10 06:02:23;;;;;;;0.82;0.65;;;20.00;42.20;;;;;;4972601;28;20334;-59
2022/02/10 06:49:18;;;;;;;1.02;0.70;;;20.00;42.20;;;;;;4961087;28;20125;-59
2022/02/10 06:51:52;;;;;;;0.90;0.60;;;20.00;42.20;;;;;;4957975;28;20506;-55
2022/02/10 06:54:28;;;;;;;1.70;0.70;;;20.00;42.80;;;;;;4959587;28;20051;-57
2022/02/10 07:03:01;;;;;;;0.50;0.50;;;19.90;42.20;;;;;;4990434;28;20048;-59
2022/02/10 07:06:01;;;;;;;2.20;1.08;;;19.90;42.20;;;;;;5022566;28;20072;-59
2022/02/10 07:08:48;;;;;;;0.75;0.68;;;19.90;42.20;;;;;;5022942;28;20184;-58
2022/02/10 07:11:29;;;;;;;1.38;0.73;;;19.90;42.20;;;;;;5022303;28;20041;-58
2022/02/10 07:47:52;;;;;;;1.67;0.90;;;19.90;42.10;;;;;;5038432;28;20047;-57
2022/02/10 07:53:24;;;;;;;1.00;0.82;;;19.90;42.10;;;;;;5034110;28;20380;-58
2022/02/10 08:56:53;;;;;;;2.92;1.63;;;20.00;41.90;;;;;;5006145;28;20196;-59
2022/02/10 09:02:44;;;;;;;3.08;1.48;;;20.00;41.90;;;;;;4976917;28;20109;-59
2022/02/10 09:05:30;;;;;;;1.30;1.23;;;20.00;41.80;;;;;;4982787;28;20145;-58
2022/02/10 09:08:33;;;;;;;1.55;1.10;;;20.00;41.90;;;;;;4984445;28;20060;-59
2022/02/10 09:16:52;;;;;;;1.80;0.95;;;20.10;41.80;;;;;;4977815;28;20070;-59
2022/02/10 09:19:53;;;;;;;1.00;0.70;;;20.10;41.80;;;;;;4977738;28;20061;-58
2022/02/10 09:56:05;;;;;;;1.42;0.80;;;20.20;41.50;;;;;;4880040;29;20691;-59
2022/02/10 09:58:59;;;;;;;1.20;1.10;;;20.20;41.50;;;;;;4887365;29;20053;-59
2022/02/10 10:01:31;;;;;;;1.83;0.60;;;20.30;41.50;;;;;;4895451;29;20048;-57
2022/02/10 10:04:05;;;;;;;1.45;0.93;;;20.30;41.50;;;;;;4944645;29;20738;-60
2022/02/10 10:06:58;;;;;;;2.83;1.00;;;20.30;41.40;;;;;;4944965;29;20138;-59
2022/02/10 10:13:01;;;;;;;1.98;0.63;;;20.30;41.40;;;;;;4944421;29;20051;-59
2022/02/10 10:15:41;;;;;;;1.67;1.00;;;20.30;41.40;;;;;;4943937;28;20082;-59
2022/02/10 10:21:06;;;;;;;1.17;1.08;;;20.30;41.40;;;;;;4999889;28;20124;-59
2022/02/10 10:23:50;;;;;;;1.45;0.82;;;20.30;41.30;;;;;;5004476;28;20578;-59
2022/02/10 10:26:50;;;;;;;2.05;1.13;;;20.40;41.90;;;;;;5005396;28;20046;-58
2022/02/10 10:52:06;;;;;;;0.82;0.82;;;20.50;41.10;;;;;;4977324;28;20112;-59
2022/02/10 10:54:39;;;;;;;2.17;0.93;;;20.50;41.70;;;;;;4983028;28;20057;-60
2022/02/10 10:57:15;;;;;;;4.68;0.95;;;20.50;41.00;;;;;;4982870;28;20737;-60
2022/02/10 11:00:10;;;;;;;1.42;0.77;;;20.50;41.00;;;;;;4984471;28;20071;-58
2022/02/10 11:36:53;;;;;;;0.60;0.55;;;20.90;40.50;;;;;;5002308;28;20050;-58
2022/02/10 13:48:54;;;;;;;0.50;0.50;;;21.20;40.00;;;;;;5021630;28;20049;-59
2022/02/10 14:13:27;;;;;;;0.20;0.20;;;21.20;40.20;;;;;;4981133;28;20042;-59
2022/02/10 14:16:05;;;;;;;3.13;0.30;;;21.10;40.10;;;;;;4962548;28;20038;-57
2022/02/10 14:18:34;;;;;;;0.20;0.20;;;21.10;40.10;;;;;;4965004;28;20054;-58
2022/02/10 14:21:07;;;;;;;0.25;0.25;;;21.10;40.20;;;;;;4969715;28;20133;-57
2022/02/10 14:29:02;;;;;;;0.70;0.20;;;21.10;40.20;;;;;;4962747;28;20306;-58
2022/02/10 14:31:29;;;;;;;0.30;0.22;;;21.10;40.20;;;;;;4972881;28;20077;-59
2022/02/10 14:33:59;;;;;;;1.08;0.85;;;21.10;40.20;;;;;;5001761;28;20052;-58
2022/02/10 14:36:32;;;;;;;0.88;0.20;;;21.10;40.20;;;;;;5045123;28;20045;-57
2022/02/10 14:39:14;;;;;;;0.30;0.30;;;21.10;40.20;;;;;;5042552;28;20037;-60
2022/02/10 15:21:11;;;;;;;0.15;0.10;;;21.40;39.80;;;;;;5071279;27;20409;-58
2022/02/10 15:46:40;;;;;;;0.32;0.10;;;21.30;39.70;;;;;;4940558;29;20215;-58
2022/02/10 15:52:03;;;;;;;0.20;0.20;;;21.30;39.70;;;;;;4940518;29;20067;-58
2022/02/10 15:54:51;;;;;;;0.20;0.10;;;21.30;39.70;;;;;;4936525;28;20054;-59
2022/02/10 16:11:00;;;;;;;0.38;0.20;;;21.10;39.80;;;;;;4955239;28;20140;-59
2022/02/10 16:19:08;;;;;;;0.10;0.10;;;21.10;39.90;;;;;;5031037;28;20080;-56
2022/02/10 16:21:40;;;;;;;0.70;0.52;;;21.10;40.00;;;;;;5037971;28;20646;-57
2022/02/10 16:24:17;;;;;;;0.30;0.13;;;21.10;40.00;;;;;;5038189;28;20049;-57
2022/02/10 16:26:57;;;;;;;0.55;0.43;;;21.00;40.00;;;;;;5039363;28;20045;-57
2022/02/10 16:29:27;;;;;;;0.43;0.10;;;21.10;40.00;;;;;;4994577;28;20530;-57
2022/02/10 16:31:55;;;;;;;0.20;0.10;;;21.00;40.10;;;;;;5024787;28;20453;-57
2022/02/10 16:34:23;;;;;;;0.43;0.43;;;21.00;40.10;;;;;;5024624;28;20044;-58
2022/02/10 16:36:53;;;;;;;0.30;0.20;;;21.00;40.10;;;;;;5024679;28;20530;-57
2022/02/10 16:39:21;;;;;;;0.17;0.10;;;21.00;40.10;;;;;;5020203;28;20060;-57
2022/02/10 16:41:51;;;;;;;0.10;0.10;;;21.00;40.20;;;;;;5021956;28;20056;-58
2022/02/10 16:44:19;;;;;;;0.10;0.10;;;20.90;40.20;;;;;;5024530;28;20140;-57
2022/02/10 16:46:47;;;;;;;1.60;0.60;;;20.90;40.20;;;;;;5024097;28;20533;-55
2022/02/10 16:49:16;;;;;;;1.13;0.20;;;20.90;40.20;;;;;;5024383;28;20065;-57
2022/02/10 16:51:46;;;;;;;0.35;0.35;;;20.90;40.20;;;;;;5045648;28;20037;-57
2022/02/10 16:54:21;;;;;;;0.10;0.10;;;20.90;40.30;;;;;;5047087;28;20041;-56
2022/02/10 16:57:01;;;;;;;1.70;0.20;;;20.90;40.30;;;;;;5044291;28;20501;-55
2022/02/10 16:59:46;;;;;;;0.65;0.22;;;20.80;40.30;;;;;;5047417;28;20425;-54
2022/02/10 17:05:30;;;;;;;0.30;0.10;;;20.80;40.40;;;;;;5046675;28;20033;-57
2022/02/10 17:19:07;;;;;;;0.57;0.17;;;20.70;40.50;;;;;;5046136;28;20077;-56
2022/02/10 17:27:18;;;;;;;0.10;0.10;;;20.70;40.70;;;;;;5044713;28;20136;-57
2022/02/10 17:30:25;;;;;;;0.22;0.10;;;20.60;40.70;;;;;;5047511;28;20768;-58
2022/02/10 17:33:05;;;;;;;1.30;0.10;;;20.70;40.70;;;;;;5047220;28;20409;-58
2022/02/10 17:35:54;;;;;;;0.43;0.10;;;20.60;40.80;;;;;;5047026;28;20036;-58
2022/02/10 17:41:32;;;;;;;0.40;0.20;;;20.60;40.90;;;;;;5044508;28;20041;-55
2022/02/10 17:44:15;;;;;;;0.22;0.22;;;20.60;40.90;;;;;;5045327;28;20044;-56
2022/02/10 17:46:57;;;;;;;1.20;0.30;;;20.60;41.00;;;;;;5041248;28;20044;-56
2022/02/10 17:52:15;;;;;;;0.20;0.10;;;20.50;41.00;;;;;;5045414;28;20033;-57
2022/02/10 17:54:43;;;;;;;0.20;0.20;;;20.50;41.00;;;;;;5046484;28;20041;-58
2022/02/10 17:57:12;;;;;;;0.10;0.10;;;20.50;41.10;;;;;;5045664;28;20124;-57
2022/02/10 17:59:39;;;;;;;0.30;0.30;;;20.50;41.10;;;;;;5047439;28;20044;-58
2022/02/10 18:02:08;;;;;;;0.25;0.20;;;20.60;41.20;;;;;;5044027;28;20036;-58
2022/02/10 18:04:35;;;;;;;0.10;0.10;;;20.50;41.20;;;;;;5045582;28;20052;-57
2022/02/10 18:07:04;;;;;;;0.20;0.10;;;20.50;41.20;;;;;;5045512;28;20148;-57
2022/02/10 18:10:01;;;;;;;0.10;0.10;;;20.50;41.20;;;;;;5046271;28;20111;-56
2022/02/10 18:15:19;;;;;;;0.52;0.05;;;20.50;41.30;;;;;;5045438;28;20128;-55
2022/02/10 18:17:53;;;;;;;0.20;0.20;;;20.40;41.30;;;;;;5047278;28;20049;-58
2022/02/10 18:20:25;;;;;;;0.63;0.20;;;20.50;41.40;;;;;;5046187;28;20144;-58
2022/02/10 18:23:05;;;;;;;0.75;0.22;;;20.40;41.40;;;;;;5045760;28;20498;-58
2022/02/10 19:02:10;;;;;;;0.10;0.10;;;20.20;41.80;;;;;;4997084;28;20054;-55
2022/02/10 19:07:34;;;;;;;0.10;0.10;;;20.20;41.90;;;;;;5011030;28;20535;-60
2022/02/10 19:10:04;;;;;;;0.22;0.10;;;20.20;41.90;;;;;;5044309;28;20127;-56
2022/02/10 19:12:42;;;;;;;1.33;0.00;;;20.20;42.00;;;;;;5044620;28;20525;-55
2022/02/10 19:15:15;;;;;;;0.00;0.00;;;20.20;42.00;;;;;;5044494;28;20033;-56
2022/02/10 19:17:43;;;;;;;0.10;0.00;;;20.20;42.00;;;;;;5046192;28;20140;-57
2022/02/10 19:20:12;;;;;;;0.05;0.00;;;20.20;42.00;;;;;;5043966;28;20055;-57
2022/02/10 19:22:42;;;;;;;0.10;0.00;;;20.20;42.00;;;;;;5044609;28;20815;-57
2022/02/10 19:25:12;;;;;;;0.20;0.20;;;20.20;42.00;;;;;;5043979;28;20787;-57
2022/02/10 19:27:40;;;;;;;0.00;0.00;;;20.10;42.00;;;;;;5044395;28;20033;-57
2022/02/10 19:30:10;;;;;;;0.00;0.00;;;20.20;42.00;;;;;;5044562;28;20053;-57
2022/02/10 19:32:40;;;;;;;0.10;0.00;;;20.10;41.90;;;;;;5045684;28;20884;-58
2022/02/10 19:35:08;;;;;;;0.55;0.05;;;20.10;42.00;;;;;;5044240;28;20068;-56
2022/02/10 19:37:35;;;;;;;0.00;0.00;;;20.10;42.00;;;;;;5044502;28;20502;-58
2022/02/10 19:40:06;;;;;;;0.00;0.00;;;20.10;42.00;;;;;;5044034;28;20048;-57
2022/02/10 19:42:36;;;;;;;0.10;0.00;;;20.10;42.00;;;;;;5044384;28;20116;-58
2022/02/10 19:45:06;;;;;;;0.35;0.00;;;20.10;42.00;;;;;;5044709;28;20124;-58
2022/02/10 19:47:37;;;;;;;0.20;0.10;;;20.10;42.00;;;;;;5043843;28;20053;-59
2022/02/10 19:50:11;;;;;;;0.28;0.28;;;20.10;42.00;;;;;;5044124;28;20140;-58
2022/02/10 19:52:40;;;;;;;0.00;0.00;;;20.10;42.10;;;;;;5043790;28;20045;-55
2022/02/10 19:55:14;;;;;;;0.10;0.10;;;20.00;42.00;;;;;;5043660;28;20037;-58
2022/02/10 19:57:42;;;;;;;0.00;0.00;;;20.10;42.10;;;;;;5044036;28;20043;-59
2022/02/10 20:00:16;;;;;;;0.10;0.03;;;20.00;42.10;;;;;;5044292;28;20137;-56
2022/02/10 20:02:44;;;;;;;0.10;0.10;;;20.00;42.10;;;;;;5045727;28;20041;-58
2022/02/10 20:05:11;;;;;;;0.70;0.10;;;20.00;42.10;;;;;;5043835;28;20045;-59
2022/02/10 20:07:40;;;;;;;0.15;0.03;;;20.00;42.10;;;;;;5042532;28;20069;-59
2022/02/10 20:10:10;;;;;;;0.10;0.00;;;20.00;42.10;;;;;;5044771;28;20096;-56
2022/02/10 20:12:39;;;;;;;0.10;0.10;;;20.00;42.10;;;;;;5047979;28;20461;-58
2022/02/10 20:15:10;;;;;;;0.10;0.05;;;20.00;42.10;;;;;;5048044;28;20529;-57
2022/02/10 20:17:37;;;;;;;1.35;0.00;;;20.00;42.20;;;;;;5047930;28;20513;-55
2022/02/10 20:20:06;;;;;;;0.00;0.00;;;20.00;42.10;;;;;;5047588;28;20525;-57
2022/02/10 20:22:37;;;;;;;0.65;0.10;;;20.00;42.20;;;;;;5047143;28;20045;-57
2022/02/10 20:25:06;;;;;;;0.10;0.10;;;20.00;42.20;;;;;;5047836;28;20120;-55
2022/02/10 20:27:35;;;;;;;0.10;0.10;;;20.00;42.20;;;;;;5047181;28;20061;-57
2022/02/10 20:30:03;;;;;;;0.13;0.10;;;20.00;42.20;;;;;;5047911;28;20818;-58
2022/02/10 20:32:30;;;;;;;0.00;0.00;;;20.00;42.20;;;;;;5048865;28;20041;-54
2022/02/10 20:34:58;;;;;;;0.20;0.10;;;19.90;42.20;;;;;;5047837;28;20533;-55
2022/02/10 20:37:27;;;;;;;0.10;0.00;;;19.90;42.20;;;;;;5047214;28;20041;-58
2022/02/10 20:39:54;;;;;;;0.08;0.00;;;19.90;42.20;;;;;;5047496;28;20080;-55
2022/02/10 20:42:22;;;;;;;0.10;0.10;;;19.90;42.20;;;;;;5047655;28;20672;-54
2022/02/10 20:44:54;;;;;;;0.10;0.00;;;19.90;42.20;;;;;;5046827;28;20041;-57
2022/02/10 20:47:24;;;;;;;0.10;0.00;;;19.90;42.20;;;;;;5048145;28;20056;-57
2022/02/10 20:49:52;;;;;;;0.10;0.00;;;19.90;42.20;;;;;;5047160;28;20048;-58
2022/02/10 20:52:19;;;;;;;0.10;0.10;;;19.90;42.20;;;;;;5047236;28;20048;-58
2022/02/10 20:54:47;;;;;;;0.10;0.00;;;19.90;42.20;;;;;;5047243;28;20037;-57
2022/02/10 20:57:14;;;;;;;0.10;0.00;;;19.90;42.20;;;;;;5047339;28;20534;-56
2022/02/10 20:59:45;;;;;;;0.10;0.00;;;19.90;42.30;;;;;;5048373;28;20041;-57
2022/02/10 21:02:17;;;;;;;0.17;0.00;;;19.90;42.30;;;;;;5046677;28;20040;-57
2022/02/10 21:04:52;;;;;;;0.10;0.00;;;19.90;42.30;;;;;;5046761;28;20131;-56
2022/02/10 21:07:29;;;;;;;0.10;0.00;;;19.90;42.30;;;;;;5039599;28;20080;-56
2022/02/10 21:09:59;;;;;;;0.10;0.00;;;19.80;42.30;;;;;;5040907;28;20036;-54
2022/02/10 21:12:31;;;;;;;0.00;0.00;;;19.80;42.30;;;;;;5046614;28;20040;-58
2022/02/10 21:15:01;;;;;;;0.00;0.00;;;19.80;42.40;;;;;;5047442;28;20049;-58
2022/02/10 21:17:31;;;;;;;0.45;0.05;;;19.80;42.40;;;;;;5047404;28;20075;-57
2022/02/10 21:20:01;;;;;;;0.10;0.10;;;19.80;42.40;;;;;;5045884;28;20049;-57
2022/02/10 21:22:31;;;;;;;0.10;0.10;;;19.80;42.50;;;;;;5046167;28;20036;-58
2022/02/10 21:25:06;;;;;;;0.10;0.00;;;19.80;42.50;;;;;;5046117;28;20037;-58
2022/02/10 21:27:41;;;;;;;0.00;0.00;;;19.80;42.90;;;;;;5046367;28;20052;-58
2022/02/10 21:30:09;;;;;;;0.73;0.00;;;19.80;42.60;;;;;;5046665;28;20057;-58
2022/02/10 21:32:43;;;;;;;0.98;0.28;;;19.80;42.60;;;;;;5046123;28;20063;-58
2022/02/10 21:35:24;;;;;;;0.00;0.00;;;19.80;42.70;;;;;;5045835;28;20529;-57
2022/02/10 21:37:57;;;;;;;0.10;0.10;;;19.80;42.70;;;;;;5042440;28;20037;-58
2022/02/10 21:40:40;;;;;;;0.05;0.00;;;19.80;42.70;;;;;;5045913;28;20102;-57
2022/02/10 21:57:11;;;;;;;0.20;0.00;;;19.80;43.00;;;;;;4969433;28;20094;-58
2022/02/10 21:59:55;;;;;;;0.52;0.00;;;19.70;42.90;;;;;;4970015;28;20063;-56
2022/02/10 22:10:58;;;;;;;0.20;0.00;;;19.70;43.00;;;;;;4973742;28;20149;-53
2022/02/10 22:19:06;;;;;;;1.65;0.50;;;19.70;43.00;;;;;;4954455;28;20050;-58
2022/02/10 22:21:39;;;;;;;0.00;0.00;;;19.70;43.10;;;;;;4967563;28;20054;-58
2022/02/10 22:24:10;;;;;;;0.10;0.00;;;19.70;43.10;;;;;;4967971;28;20150;-58
2022/02/10 22:26:39;;;;;;;0.22;0.10;;;19.70;43.10;;;;;;4970864;28;20452;-57
2022/02/10 22:29:11;;;;;;;0.25;0.00;;;19.70;43.10;;;;;;5016017;28;20081;-56
2022/02/10 22:31:48;;;;;;;0.20;0.10;;;19.70;43.00;;;;;;5045049;28;20517;-56
2022/02/10 22:34:26;;;;;;;0.10;0.10;;;19.70;43.10;;;;;;5043661;28;20040;-57
2022/02/10 22:36:58;;;;;;;0.08;0.00;;;19.70;43.10;;;;;;5045072;28;20067;-58
2022/02/10 22:39:26;;;;;;;0.05;0.00;;;19.70;43.10;;;;;;5044783;28;20378;-57
2022/02/10 22:41:53;;;;;;;0.10;0.10;;;19.70;43.00;;;;;;5045855;28;20045;-56
2022/02/10 22:44:21;;;;;;;0.20;0.00;;;19.70;43.00;;;;;;5045756;28;20041;-56
2022/02/10 22:46:48;;;;;;;1.33;0.80;;;19.70;43.00;;;;;;5044921;28;20382;-57
2022/02/10 22:49:16;;;;;;;0.32;0.00;;;19.70;43.00;;;;;;5037684;28;20071;-56
2022/02/10 22:51:43;;;;;;;0.00;0.00;;;19.70;43.00;;;;;;5045136;28;20060;-56
2022/02/10 22:54:13;;;;;;;0.32;0.00;;;19.70;43.00;;;;;;5044833;28;20045;-56
2022/02/10 22:56:41;;;;;;;0.10;0.00;;;19.70;42.90;;;;;;5046569;28;20091;-56
2022/02/10 22:59:09;;;;;;;1.05;0.63;;;19.70;42.90;;;;;;5044609;28;20051;-56
2022/02/10 23:01:37;;;;;;;0.10;0.10;;;19.60;42.80;;;;;;5044118;28;20052;-57
2022/02/10 23:04:05;;;;;;;0.10;0.10;;;19.70;42.90;;;;;;5044250;28;20041;-56
2022/02/10 23:06:33;;;;;;;0.20;0.00;;;19.60;42.80;;;;;;5044705;28;20116;-54
2022/02/10 23:09:01;;;;;;;0.77;0.43;;;19.60;42.80;;;;;;5044937;28;20045;-58
2022/02/10 23:11:30;;;;;;;0.05;0.05;;;19.60;42.80;;;;;;5045634;28;20768;-56
2022/02/10 23:14:00;;;;;;;0.10;0.10;;;19.60;42.80;;;;;;5044385;28;20043;-54
2022/02/10 23:16:29;;;;;;;1.45;0.10;;;19.60;42.80;;;;;;5044323;28;20041;-57
2022/02/10 23:18:57;;;;;;;0.10;0.00;;;19.60;42.80;;;;;;5044180;28;20128;-56
2022/02/10 23:21:24;;;;;;;1.10;0.10;;;19.60;42.80;;;;;;5044081;28;20040;-56
2022/02/10 23:23:52;;;;;;;0.10;0.03;;;19.50;42.80;;;;;;5045783;28;20513;-57
2022/02/10 23:26:24;;;;;;;0.32;0.32;;;19.50;42.80;;;;;;5044801;28;20048;-55
2022/02/10 23:28:55;;;;;;;0.10;0.10;;;19.50;42.80;;;;;;5044235;28;20569;-56
2022/02/10 23:31:25;;;;;;;0.00;0.00;;;19.50;42.80;;;;;;5044005;28;20037;-56
2022/02/10 23:33:56;;;;;;;0.20;0.15;;;19.50;42.80;;;;;;5038227;28;20037;-57
2022/02/10 23:39:14;;;;;;;0.10;0.08;;;19.50;42.80;;;;;;5042954;28;20925;-56
2022/02/10 23:41:57;;;;;;;0.10;0.10;;;19.50;42.80;;;;;;5031631;28;20080;-55
2022/02/10 23:44:29;;;;;;;0.10;0.10;;;19.50;42.80;;;;;;5049266;28;20069;-57
2022/02/10 23:46:58;;;;;;;0.17;0.00;;;19.50;42.80;;;;;;5047789;28;20036;-56
2022/02/10 23:49:26;;;;;;;1.42;0.10;;;19.50;42.80;;;;;;5048200;28;20037;-56
2022/02/10 23:51:57;;;;;;;0.15;0.10;;;19.50;42.90;;;;;;5048200;28;20052;-55
2022/02/10 23:54:26;;;;;;;0.85;0.10;;;19.40;42.80;;;;;;5048154;28;20083;-56
2022/02/10 23:56:59;;;;;;;0.10;0.00;;;19.40;42.80;;;;;;5045978;28;20068;-57
2022/02/10 23:59:49;;;;;;;0.10;0.10;;;19.40;42.90;;;;;;5047857;28;20045;-52
